createdAt,value
2023-05-24T00:01:25.961Z,64.89
2023-05-24T00:03:27.026Z,65.15
2023-05-24T00:04:53.113Z,65.28
2023-05-24T00:06:17.235Z,65.80
2023-05-24T00:07:38.757Z,65.86
2023-05-24T00:09:14.581Z,66.26
2023-05-24T00:10:36.846Z,66.56
2023-05-24T00:11:58.387Z,66.95
2023-05-24T00:13:25.190Z,67.38
2023-05-24T00:14:46.699Z,67.72
2023-05-24T00:16:11.840Z,68.29
2023-05-24T00:17:34.858Z,68.52
2023-05-24T00:18:59.345Z,68.40
2023-05-24T00:20:21.904Z,68.60
2023-05-24T00:21:43.208Z,69.14
2023-05-24T00:23:08.103Z,69.04
2023-05-24T00:24:29.358Z,69.39
2023-05-24T00:28:50.382Z,69.41
2023-05-24T00:30:23.566Z,69.64
2023-05-24T00:35:09.827Z,70.32
2023-05-24T00:36:35.420Z,70.35
2023-05-24T00:38:18.760Z,70.69
2023-05-24T00:39:42.075Z,70.88
2023-05-24T00:41:10.176Z,71.10
2023-05-24T00:42:31.505Z,71.21
2023-05-24T00:44:00.847Z,71.05
2023-05-24T00:45:24.278Z,70.95
2023-05-24T00:46:50.991Z,71.19
2023-05-24T00:48:12.767Z,71.37
2023-05-24T00:49:38.482Z,71.82
2023-05-24T00:51:00.087Z,71.95
2023-05-24T00:52:23.010Z,72.36
2023-05-24T00:53:46.376Z,72.52
2023-05-24T00:55:09.758Z,72.22
2023-05-24T00:56:34.238Z,72.50
2023-05-24T00:57:59.938Z,72.43
2023-05-24T00:59:24.611Z,72.39
2023-05-24T01:00:49.984Z,72.72
2023-05-24T01:02:12.452Z,72.73
2023-05-24T01:03:35.860Z,73.07
2023-05-24T01:05:00.219Z,73.38
2023-05-24T01:06:25.214Z,73.63
2023-05-24T01:07:58.658Z,73.90
2023-05-24T01:09:31.489Z,73.79
2023-05-24T01:10:59.220Z,73.92
2023-05-24T01:12:47.070Z,74.22
2023-05-24T01:14:20.092Z,74.36
2023-05-24T01:15:53.574Z,74.49
2023-05-24T01:17:21.604Z,74.70
2023-05-24T01:18:51.416Z,74.65
2023-05-24T01:20:17.345Z,74.65
2023-05-24T01:21:56.353Z,74.70
2023-05-24T01:23:42.948Z,74.22
2023-05-24T01:25:07.775Z,74.44
2023-05-24T01:26:41.490Z,75.16
2023-05-24T01:28:09.712Z,75.09
2023-05-24T01:29:35.938Z,75.16
2023-05-24T01:30:57.337Z,74.89
2023-05-24T01:32:20.591Z,74.74
2023-05-24T01:33:43.051Z,74.93
2023-05-24T01:35:06.088Z,74.88
2023-05-24T01:36:28.239Z,75.00
2023-05-24T01:37:49.479Z,74.84
2023-05-24T01:39:12.023Z,74.78
2023-05-24T01:40:34.051Z,75.14
2023-05-24T01:42:06.789Z,75.24
2023-05-24T01:43:34.645Z,75.60
2023-05-24T01:45:04.806Z,76.10
2023-05-24T01:46:36.703Z,76.12
2023-05-24T01:48:03.632Z,76.19
2023-05-24T01:49:31.706Z,76.24
2023-05-24T01:51:00.516Z,76.47
2023-05-24T01:52:28.865Z,76.52
2023-05-24T01:53:52.715Z,76.65
2023-05-24T01:55:18.863Z,76.36
2023-05-24T01:56:44.977Z,76.52
2023-05-24T01:58:09.466Z,76.59
2023-05-24T01:59:34.821Z,76.50
2023-05-24T02:00:56.657Z,76.50
2023-05-24T02:02:20.506Z,76.49
2023-05-24T02:03:52.330Z,76.50
2023-05-24T02:05:18.588Z,76.38
2023-05-24T02:19:17.351Z,76.53
2023-05-24T02:20:40.060Z,76.64
2023-05-24T02:22:01.702Z,76.79
2023-05-24T02:23:25.645Z,77.06
2023-05-24T02:24:54.068Z,76.98
2023-05-24T02:26:17.896Z,76.52
2023-05-24T02:27:39.285Z,76.45
2023-05-24T02:29:01.551Z,76.26
2023-05-24T02:30:22.770Z,76.03
2023-05-24T02:31:45.271Z,76.12
2023-05-24T02:38:46.000Z,75.73
2023-05-24T02:40:08.937Z,75.66
2023-05-24T02:41:31.570Z,75.58
2023-05-24T02:42:53.896Z,75.58
2023-05-24T02:44:15.308Z,75.71
2023-05-24T02:45:37.956Z,75.60
2023-05-24T02:46:59.284Z,75.87
2023-05-24T02:48:21.887Z,75.81
2023-05-24T02:49:43.431Z,75.57
2023-05-24T02:51:06.202Z,75.60
2023-05-24T02:52:27.363Z,75.26
2023-05-24T02:53:51.411Z,75.37
2023-05-24T02:55:14.408Z,75.43
2023-05-24T02:56:37.735Z,75.48
2023-05-24T02:57:59.400Z,75.22
2023-05-24T02:59:21.790Z,75.34
2023-05-24T03:00:43.998Z,74.94
2023-05-24T03:02:06.947Z,74.81
2023-05-24T03:03:30.953Z,75.50
2023-05-24T03:04:53.281Z,75.28
2023-05-24T03:06:16.105Z,75.08
2023-05-24T03:07:37.616Z,75.13
2023-05-24T03:09:02.826Z,75.13
2023-05-24T03:10:24.438Z,75.29
2023-05-24T03:11:46.982Z,75.21
2023-05-24T03:13:09.686Z,75.45
2023-05-24T03:14:33.271Z,75.52
2023-05-24T03:15:55.297Z,75.42
2023-05-24T03:17:20.017Z,75.52
2023-05-24T03:18:41.657Z,75.36
2023-05-24T03:20:05.973Z,75.29
2023-05-24T03:21:27.918Z,75.27
2023-05-24T03:22:52.567Z,75.49
2023-05-24T03:24:15.391Z,75.37
2023-05-24T03:25:37.718Z,75.45
2023-05-24T03:26:59.923Z,75.42
2023-05-24T03:28:22.526Z,75.34
2023-05-24T03:29:45.209Z,75.28
2023-05-24T03:31:07.459Z,75.17
2023-05-24T03:32:30.130Z,75.26
2023-05-24T03:33:51.654Z,75.26
2023-05-24T03:35:14.086Z,75.22
2023-05-24T03:36:36.730Z,75.34
2023-05-24T03:37:59.083Z,75.06
2023-05-24T03:39:23.924Z,75.18
2023-05-24T03:40:53.229Z,75.12
2023-05-24T03:42:15.571Z,75.42
2023-05-24T03:43:38.692Z,75.13
2023-05-24T03:45:10.992Z,75.29
2023-05-24T03:46:34.079Z,75.03
2023-05-24T03:47:56.580Z,74.92
2023-05-24T03:49:18.790Z,74.45
2023-05-24T03:50:41.022Z,74.44
2023-05-24T03:52:03.583Z,74.50
2023-05-24T03:53:24.873Z,74.56
2023-05-24T03:54:49.503Z,74.22
2023-05-24T03:56:11.418Z,74.05
2023-05-24T03:57:32.444Z,73.97
2023-05-24T03:58:54.726Z,73.92
2023-05-24T04:00:16.576Z,73.81
2023-05-24T04:01:43.389Z,73.66
2023-05-24T04:03:06.941Z,73.65
2023-05-24T04:04:29.881Z,73.39
2023-05-24T04:05:52.834Z,73.52
2023-05-24T04:07:16.534Z,73.54
2023-05-24T04:09:29.239Z,73.17
2023-05-24T04:10:52.080Z,73.72
2023-05-24T04:13:32.257Z,73.58
2023-05-24T04:14:55.430Z,73.83
2023-05-24T04:16:16.798Z,73.75
2023-05-24T04:17:39.734Z,73.75
2023-05-24T04:19:05.985Z,73.75
2023-05-24T04:20:29.602Z,73.51
2023-05-24T04:21:56.007Z,72.94
2023-05-24T04:23:17.573Z,72.71
2023-05-24T04:24:42.259Z,72.59
2023-05-24T04:26:07.707Z,72.48
2023-05-24T04:27:30.353Z,72.40
2023-05-24T04:28:52.923Z,72.53
2023-05-24T04:30:14.400Z,72.53
2023-05-24T04:31:36.787Z,73.07
2023-05-24T04:33:00.253Z,72.85
2023-05-24T04:34:24.028Z,72.54
2023-05-24T04:35:45.808Z,72.93
2023-05-24T04:37:08.977Z,72.64
2023-05-24T04:38:32.527Z,72.42
2023-05-24T04:39:55.194Z,72.14
2023-05-24T04:41:21.718Z,71.76
2023-05-24T04:42:43.777Z,71.68
2023-05-24T04:44:06.396Z,71.80
2023-05-24T04:45:28.205Z,71.74
2023-05-24T04:46:50.815Z,71.56
2023-05-24T04:48:15.988Z,71.27
2023-05-24T04:49:37.967Z,71.34
2023-05-24T04:51:00.655Z,71.17
2023-05-24T04:52:23.050Z,70.98
2023-05-24T04:53:45.209Z,70.99
2023-05-24T04:55:07.078Z,70.93
2023-05-24T04:56:53.203Z,70.97
2023-05-24T04:57:57.304Z,71.15
2023-05-24T04:59:18.922Z,70.83
2023-05-24T05:00:41.244Z,70.58
2023-05-24T05:02:17.574Z,70.51
2023-05-24T05:03:41.229Z,70.46
2023-05-24T05:05:03.719Z,70.18
2023-05-24T05:06:27.129Z,70.36
2023-05-24T05:07:52.173Z,70.36
2023-05-24T05:09:14.977Z,70.42
2023-05-24T05:10:44.855Z,70.42
2023-05-24T05:12:25.440Z,70.48
2023-05-24T05:13:48.439Z,70.22
2023-05-24T05:15:11.521Z,69.94
2023-05-24T05:16:33.096Z,69.80
2023-05-24T05:17:57.524Z,70.02
2023-05-24T05:19:19.901Z,69.84
2023-05-24T05:20:53.849Z,69.58
2023-05-24T05:22:31.277Z,69.66
2023-05-24T05:24:33.427Z,69.58
2023-05-24T05:25:56.678Z,69.46
2023-05-24T05:27:20.669Z,69.04
2023-05-24T05:28:42.847Z,68.77
2023-05-24T05:30:05.289Z,68.70
2023-05-24T05:31:31.089Z,68.58
2023-05-24T05:32:57.310Z,68.49
2023-05-24T05:34:21.360Z,68.17
2023-05-24T05:35:43.465Z,67.95
2023-05-24T05:37:05.989Z,67.99
2023-05-24T05:38:28.142Z,67.77
2023-05-24T05:39:50.321Z,67.87
2023-05-24T05:41:16.528Z,67.80
2023-05-24T05:42:40.965Z,67.96
2023-05-24T05:44:03.710Z,67.89
2023-05-24T05:45:26.914Z,67.83
2023-05-24T05:46:50.026Z,67.98
2023-05-24T05:48:13.161Z,67.88
2023-05-24T05:49:37.670Z,67.95
2023-05-24T05:51:00.656Z,68.16
2023-05-24T05:52:24.167Z,67.99
2023-05-24T05:53:48.266Z,68.10
2023-05-24T05:55:14.910Z,68.01
2023-05-24T05:56:45.354Z,67.86
2023-05-24T05:58:10.636Z,67.44
2023-05-24T05:59:39.126Z,67.14
2023-05-24T06:01:02.520Z,66.37
2023-05-24T06:02:28.805Z,65.80
2023-05-24T06:03:52.402Z,64.85
2023-05-24T06:05:16.081Z,64.14
2023-05-24T06:06:38.590Z,63.26
2023-05-24T06:08:00.876Z,62.47
2023-05-24T06:09:23.453Z,61.85
2023-05-24T06:10:45.945Z,61.58
2023-05-24T06:13:47.012Z,61.04
2023-05-24T06:15:10.591Z,60.71
2023-05-24T06:16:32.902Z,60.40
2023-05-24T06:17:55.570Z,59.93
2023-05-24T06:19:18.462Z,59.76
2023-05-24T06:20:41.133Z,59.50
2023-05-24T06:22:03.785Z,59.24
2023-05-24T06:23:25.866Z,59.04
2023-05-24T06:24:49.303Z,58.65
2023-05-24T06:26:14.391Z,58.51
2023-05-24T06:27:37.080Z,58.33
2023-05-24T06:29:00.620Z,58.09
2023-05-24T06:30:22.723Z,58.11
2023-05-24T06:31:45.088Z,58.27
2023-05-24T06:35:30.122Z,58.34
2023-05-24T06:36:53.155Z,57.19
2023-05-24T06:38:15.671Z,56.15
2023-05-24T06:39:40.903Z,55.38
2023-05-24T06:41:05.622Z,55.02
2023-05-24T06:42:28.691Z,54.42
2023-05-24T06:43:51.632Z,53.93
2023-05-24T06:45:16.725Z,53.29
2023-05-24T06:46:41.970Z,52.94
2023-05-24T06:48:04.727Z,53.24
2023-05-24T06:49:30.538Z,52.41
2023-05-24T06:51:02.614Z,52.01
2023-05-24T06:52:24.989Z,53.31
2023-05-24T06:53:47.812Z,52.60
2023-05-24T06:55:11.040Z,51.82
2023-05-24T06:56:40.008Z,50.92
2023-05-24T06:58:05.433Z,51.01
2023-05-24T06:59:37.839Z,50.69
2023-05-24T07:01:30.723Z,50.41
2023-05-24T07:02:56.669Z,50.63
2023-05-24T07:04:41.376Z,50.01
2023-05-24T07:06:03.769Z,50.45
2023-05-24T07:07:25.760Z,49.98
2023-05-24T07:09:02.319Z,49.66
2023-05-24T07:10:24.545Z,50.05
2023-05-24T07:11:47.291Z,49.53
2023-05-24T07:13:13.656Z,49.44
2023-05-24T07:14:36.486Z,49.54
2023-05-24T07:15:58.847Z,49.23
2023-05-24T07:17:28.208Z,49.16
2023-05-24T07:18:50.838Z,49.14
2023-05-24T07:21:20.203Z,49.15
2023-05-24T07:22:43.344Z,50.18
2023-05-24T07:24:04.655Z,50.03
2023-05-24T07:25:27.832Z,50.14
2023-05-24T07:26:50.337Z,49.97
2023-05-24T07:28:14.387Z,49.85
2023-05-24T07:29:37.000Z,49.96
2023-05-24T07:31:00.735Z,49.83
2023-05-24T07:32:22.950Z,49.79
2023-05-24T07:33:47.047Z,49.65
2023-05-24T07:35:16.003Z,49.48
2023-05-24T07:36:43.916Z,49.93
2023-05-24T07:38:06.157Z,49.97
2023-05-24T07:39:29.820Z,50.04
2023-05-24T07:41:01.913Z,50.34
2023-05-24T07:42:32.495Z,50.53
2023-05-24T07:43:53.819Z,50.71
2023-05-24T07:45:34.696Z,50.98
2023-05-24T07:46:58.638Z,51.35
2023-05-24T07:48:21.159Z,51.34
2023-05-24T07:49:44.572Z,50.93
2023-05-24T07:51:06.910Z,50.73
2023-05-24T07:52:29.911Z,50.57
2023-05-24T07:53:52.099Z,50.19
2023-05-24T07:55:17.562Z,49.83
2023-05-24T07:56:44.645Z,50.09
2023-05-24T07:58:06.642Z,49.99
2023-05-24T07:59:29.642Z,50.19
2023-05-24T08:00:52.617Z,50.01
2023-05-24T08:02:15.882Z,50.00
2023-05-24T08:03:38.434Z,49.86
2023-05-24T08:05:03.993Z,49.90
2023-05-24T08:06:26.721Z,49.88
2023-05-24T08:07:49.162Z,49.40
2023-05-24T08:09:12.505Z,49.06
2023-05-24T08:10:34.836Z,48.72
2023-05-24T08:11:57.255Z,48.32
2023-05-24T08:13:20.086Z,48.30
2023-05-24T08:14:42.378Z,48.31
2023-05-24T08:16:08.667Z,47.66
2023-05-24T08:17:33.030Z,47.54
2023-05-24T08:18:56.196Z,46.96
2023-05-24T08:20:20.428Z,46.85
2023-05-24T08:21:43.911Z,46.64
2023-05-24T08:23:06.372Z,46.04
2023-05-24T08:24:28.474Z,45.27
2023-05-24T08:25:50.037Z,46.84
2023-05-24T08:27:52.577Z,45.64
2023-05-24T08:32:27.098Z,43.41
2023-05-24T08:33:51.777Z,42.66
2023-05-24T08:36:44.773Z,41.49
2023-05-24T08:38:07.667Z,41.08
2023-05-24T08:39:30.128Z,40.61
2023-05-24T08:40:52.701Z,40.31
2023-05-24T08:42:29.384Z,39.73
2023-05-24T08:43:52.933Z,39.53
2023-05-24T08:45:16.644Z,39.21
2023-05-24T08:46:57.580Z,38.83
2023-05-24T08:48:20.794Z,38.11
2023-05-24T08:49:43.538Z,37.53
2023-05-24T08:51:06.852Z,37.37
2023-05-24T08:52:34.442Z,36.88
2023-05-24T08:53:57.074Z,36.57
2023-05-24T08:55:19.363Z,36.23
2023-05-24T08:56:41.952Z,35.80
2023-05-24T08:58:05.474Z,35.55
2023-05-24T08:59:31.245Z,34.82
2023-05-24T09:00:53.480Z,34.64
2023-05-24T09:02:16.697Z,34.26
2023-05-24T09:03:39.860Z,34.03
2023-05-24T09:05:02.805Z,33.61
2023-05-24T09:06:26.681Z,33.14
2023-05-24T09:07:51.444Z,33.24
2023-05-24T09:09:14.679Z,32.99
2023-05-24T09:10:49.233Z,32.94
2023-05-24T09:12:35.415Z,32.90
2023-05-24T09:14:03.499Z,33.08
2023-05-24T09:15:26.435Z,32.65
2023-05-24T09:16:51.120Z,32.09
2023-05-24T09:18:19.552Z,31.72
2023-05-24T09:19:41.262Z,31.54
2023-05-24T09:21:03.547Z,31.76
2023-05-24T09:22:27.726Z,31.54
2023-05-24T09:23:54.045Z,31.58
2023-05-24T09:25:16.453Z,31.58
2023-05-24T09:26:38.655Z,31.42
2023-05-24T09:28:00.640Z,31.07
2023-05-24T09:29:27.296Z,29.65
2023-05-24T09:31:02.801Z,26.79
2023-05-24T09:32:26.996Z,25.21
2023-05-24T09:33:50.681Z,23.40
2023-05-24T09:35:15.468Z,23.21
2023-05-24T09:36:38.424Z,22.50
2023-05-24T09:38:00.484Z,22.59
2023-05-24T09:39:24.610Z,22.34
2023-05-24T09:40:46.967Z,21.99
2023-05-24T09:42:09.631Z,22.06
2023-05-24T09:43:33.084Z,22.29
2023-05-24T09:45:02.114Z,22.25
2023-05-24T09:46:24.180Z,22.45
2023-05-24T09:47:50.223Z,22.83
2023-05-24T09:49:31.404Z,23.24
2023-05-24T09:51:04.383Z,24.09
2023-05-24T09:52:26.581Z,23.87
2023-05-24T09:53:49.775Z,24.89
2023-05-24T09:55:17.815Z,24.72
2023-05-24T09:56:41.920Z,25.56
2023-05-24T09:58:05.520Z,25.90
2023-05-24T09:59:27.831Z,26.13
2023-05-24T10:00:50.069Z,25.75
2023-05-24T10:02:13.708Z,24.69
2023-05-24T10:03:35.896Z,24.80
2023-05-24T10:05:01.718Z,25.39
2023-05-24T10:06:24.321Z,25.94
2023-05-24T10:07:49.376Z,26.35
2023-05-24T10:09:14.237Z,26.76
2023-05-24T10:10:40.169Z,26.85
2023-05-24T10:12:06.448Z,27.22
2023-05-24T10:13:29.168Z,27.79
2023-05-24T10:14:53.497Z,27.89
2023-05-24T10:16:15.924Z,28.24
2023-05-24T10:17:37.163Z,28.08
2023-05-24T10:19:06.054Z,28.76
2023-05-24T10:20:28.548Z,29.11
2023-05-24T10:21:51.517Z,29.58
2023-05-24T10:23:19.855Z,29.93
2023-05-24T10:24:48.222Z,29.94
2023-05-24T10:26:14.021Z,30.24
2023-05-24T10:27:38.409Z,30.45
2023-05-24T10:29:08.290Z,30.89
2023-05-24T10:30:42.571Z,31.16
2023-05-24T10:32:09.556Z,31.62
2023-05-24T10:33:32.569Z,31.81
2023-05-24T10:34:54.903Z,31.86
2023-05-24T10:36:17.829Z,31.69
2023-05-24T10:37:40.379Z,31.59
2023-05-24T10:39:03.696Z,31.53
2023-05-24T10:40:28.396Z,31.92
2023-05-24T10:41:52.229Z,31.71
2023-05-24T10:43:18.152Z,31.44
2023-05-24T10:44:40.691Z,31.57
2023-05-24T10:46:05.123Z,31.84
2023-05-24T10:47:30.286Z,31.79
2023-05-24T10:49:01.282Z,31.76
2023-05-24T10:50:25.395Z,31.82
2023-05-24T10:51:47.378Z,32.13
2023-05-24T10:53:16.599Z,32.17
2023-05-24T10:54:44.732Z,32.42
2023-05-24T10:56:14.890Z,32.10
2023-05-24T10:57:40.068Z,32.18
2023-05-24T10:59:02.483Z,31.95
2023-05-24T11:00:35.676Z,32.00
2023-05-24T11:01:59.415Z,31.81
2023-05-24T11:03:24.886Z,32.05
2023-05-24T11:04:50.588Z,31.62
2023-05-24T11:06:14.927Z,31.97
2023-05-24T11:07:43.260Z,31.85
2023-05-24T11:09:06.287Z,31.81
2023-05-24T11:10:48.797Z,31.83
2023-05-24T11:12:22.095Z,31.59
2023-05-24T11:13:50.729Z,31.31
2023-05-24T11:15:13.494Z,31.62
2023-05-24T11:16:39.454Z,31.25
2023-05-24T11:18:18.332Z,31.60
2023-05-24T11:19:47.642Z,31.38
2023-05-24T11:21:10.526Z,31.43
2023-05-24T11:22:32.739Z,31.61
2023-05-24T11:23:55.230Z,31.51
2023-05-24T11:25:17.618Z,31.53
2023-05-24T11:26:39.282Z,31.85
2023-05-24T11:28:03.271Z,31.54
2023-05-24T11:29:30.246Z,31.62
2023-05-24T11:35:41.325Z,31.76
2023-05-24T11:37:06.298Z,31.79
2023-05-24T11:38:27.675Z,32.19
2023-05-24T11:39:53.294Z,31.94
2023-05-24T11:41:14.665Z,32.19
2023-05-24T11:42:37.754Z,32.29
2023-05-24T11:44:00.632Z,32.65
2023-05-24T11:45:24.611Z,32.98
2023-05-24T11:46:47.496Z,32.86
2023-05-24T11:48:10.011Z,32.61
2023-05-24T11:49:32.485Z,32.51
2023-05-24T11:50:55.243Z,32.93
2023-05-24T11:52:17.992Z,32.65
2023-05-24T11:53:40.578Z,32.50
2023-05-24T11:55:02.686Z,32.56
2023-05-24T11:56:24.259Z,32.81
2023-05-24T11:57:50.495Z,32.79
2023-05-24T11:59:15.749Z,32.76
2023-05-24T12:00:39.457Z,32.77
2023-05-24T12:02:02.176Z,32.77
2023-05-24T12:03:23.361Z,33.09
2023-05-24T12:04:46.300Z,33.10
2023-05-24T12:06:08.380Z,32.96
2023-05-24T12:07:33.185Z,33.38
2023-05-24T12:08:54.914Z,33.26
2023-05-24T12:10:21.521Z,33.36
2023-05-24T12:11:45.557Z,33.38
2023-05-24T12:13:08.660Z,33.60
2023-05-24T12:14:31.423Z,33.54
2023-05-24T12:15:56.757Z,33.71
2023-05-24T12:17:21.774Z,33.65
2023-05-24T12:18:55.126Z,33.78
2023-05-24T12:20:24.988Z,33.66
2023-05-24T12:21:48.058Z,33.76
2023-05-24T12:23:10.239Z,33.67
2023-05-24T12:24:32.745Z,33.82
2023-05-24T12:25:59.508Z,33.96
2023-05-24T12:27:24.653Z,33.73
2023-05-24T12:28:47.309Z,34.01
2023-05-24T12:30:10.320Z,33.93
2023-05-24T12:31:33.728Z,33.61
2023-05-24T12:32:55.873Z,33.54
2023-05-24T12:34:19.160Z,33.87
2023-05-24T12:35:42.820Z,33.48
2023-05-24T12:37:04.693Z,33.28
2023-05-24T12:38:26.733Z,33.46
2023-05-24T12:39:48.332Z,33.23
2023-05-24T12:41:13.649Z,33.22
2023-05-24T12:42:38.671Z,33.57
2023-05-24T12:44:00.621Z,33.42
2023-05-24T12:45:26.040Z,33.33
2023-05-24T12:46:49.465Z,33.28
2023-05-24T12:48:14.696Z,33.29
2023-05-24T12:49:39.392Z,33.41
2023-05-24T12:51:02.292Z,33.56
2023-05-24T12:52:24.771Z,33.68
2023-05-24T12:53:46.660Z,33.65
2023-05-24T12:55:09.686Z,33.76
2023-05-24T12:56:31.607Z,33.85
2023-05-24T12:57:54.675Z,33.94
2023-05-24T12:59:16.662Z,34.21
2023-05-24T13:00:41.923Z,34.05
2023-05-24T13:02:07.300Z,34.08
2023-05-24T13:03:29.284Z,33.97
2023-05-24T13:04:51.321Z,34.12
2023-05-24T13:06:13.365Z,34.23
2023-05-24T13:07:36.208Z,33.93
2023-05-24T13:09:03.466Z,34.30
2023-05-24T13:10:25.395Z,34.31
2023-05-24T13:11:47.377Z,34.33
2023-05-24T13:13:09.514Z,34.46
2023-05-24T13:14:31.386Z,34.45
2023-05-24T13:15:53.613Z,34.52
2023-05-24T13:17:18.170Z,34.34
2023-05-24T13:18:42.933Z,34.42
2023-05-24T13:20:06.680Z,34.35
2023-05-24T13:21:29.541Z,34.71
2023-05-24T13:22:54.127Z,34.62
2023-05-24T13:24:17.460Z,34.47
2023-05-24T13:25:39.585Z,34.55
2023-05-24T13:27:01.612Z,34.45
2023-05-24T13:28:23.465Z,34.46
2023-05-24T13:29:56.448Z,34.27
2023-05-24T13:31:22.235Z,34.33
2023-05-24T13:32:46.246Z,34.20
2023-05-24T13:34:09.325Z,34.44
2023-05-24T13:35:35.835Z,34.45
2023-05-24T13:36:57.475Z,34.31
2023-05-24T13:38:19.336Z,34.46
2023-05-24T13:39:46.024Z,34.29
2023-05-24T13:41:11.018Z,34.25
2023-05-24T13:42:33.224Z,34.33
2023-05-24T13:43:55.056Z,34.27
2023-05-24T13:45:17.285Z,34.31
2023-05-24T13:46:42.597Z,34.11
2023-05-24T13:48:20.306Z,33.93
2023-05-24T13:49:54.606Z,34.20
2023-05-24T13:51:26.255Z,34.45
2023-05-24T13:53:03.073Z,34.46
2023-05-24T13:54:25.194Z,34.57
2023-05-24T13:55:47.326Z,34.50
2023-05-24T13:57:13.267Z,34.47
2023-05-24T13:58:39.830Z,34.64
2023-05-24T14:00:03.654Z,34.54
2023-05-24T14:01:29.458Z,34.54
2023-05-24T14:02:53.919Z,34.58
2023-05-24T14:04:18.209Z,34.51
2023-05-24T14:06:03.444Z,34.62
2023-05-24T14:07:25.540Z,34.51
2023-05-24T14:08:47.520Z,34.23
2023-05-24T14:10:09.915Z,34.41
2023-05-24T14:11:32.681Z,34.59
2023-05-24T14:13:34.185Z,34.71
2023-05-24T14:15:07.787Z,34.74
2023-05-24T14:16:33.291Z,34.89
2023-05-24T14:18:42.455Z,34.98
2023-05-24T14:21:32.529Z,35.06
2023-05-24T14:25:42.394Z,34.91
2023-05-24T14:27:48.654Z,34.97
2023-05-24T14:29:20.524Z,34.98
2023-05-24T14:30:43.452Z,35.30
2023-05-24T14:32:06.550Z,35.44
2023-05-24T14:33:31.524Z,35.46
2023-05-24T14:34:54.776Z,35.47
2023-05-24T14:36:18.390Z,35.70
2023-05-24T14:37:41.036Z,35.63
2023-05-24T14:39:04.791Z,35.63
2023-05-24T14:40:26.898Z,35.46
2023-05-24T14:41:48.820Z,35.71
2023-05-24T14:43:11.060Z,35.79
2023-05-24T14:44:33.085Z,35.95
2023-05-24T14:45:53.952Z,36.00
2023-05-24T14:47:18.818Z,35.99
2023-05-24T14:48:49.087Z,36.32
2023-05-24T14:50:11.285Z,36.17
2023-05-24T14:51:37.678Z,36.43
2023-05-24T14:52:59.730Z,36.41
2023-05-24T14:54:25.070Z,36.33
2023-05-24T15:13:07.351Z,36.36
2023-05-24T15:14:33.382Z,36.04
2023-05-24T15:15:56.933Z,36.08
2023-05-24T15:17:21.554Z,36.54
2023-05-24T15:18:44.517Z,36.46
2023-05-24T15:20:12.724Z,36.55
2023-05-24T15:24:59.813Z,36.60
2023-05-24T15:26:49.533Z,36.54
2023-05-24T15:28:16.217Z,36.53
2023-05-24T15:29:38.730Z,36.63
2023-05-24T15:31:08.620Z,36.16
2023-05-24T15:32:37.046Z,36.49
2023-05-24T15:35:57.037Z,36.33
2023-05-24T15:38:08.683Z,36.67
2023-05-24T15:39:41.188Z,36.83
2023-05-24T15:41:04.169Z,36.79
2023-05-24T15:42:31.475Z,36.88
2023-05-24T15:44:10.194Z,36.88
2023-05-24T15:45:32.456Z,37.34
2023-05-24T15:46:54.808Z,37.22
2023-05-24T15:48:20.179Z,36.86
2023-05-24T15:49:42.841Z,37.28
2023-05-24T15:52:01.090Z,37.68
2023-05-24T15:52:49.335Z,37.61
2023-05-24T15:54:11.460Z,37.71
2023-05-24T15:55:37.141Z,37.83
2023-05-24T15:57:11.683Z,37.98
2023-05-24T15:58:34.579Z,37.98
2023-05-24T15:59:58.209Z,38.09
2023-05-24T16:01:20.610Z,38.15
2023-05-24T16:02:42.773Z,38.25
2023-05-24T16:04:05.200Z,38.26
2023-05-24T16:05:31.154Z,38.47
2023-05-24T16:07:04.796Z,38.65
2023-05-24T16:08:31.233Z,38.57
2023-05-24T16:09:55.702Z,38.60
2023-05-24T16:11:20.274Z,38.82
2023-05-24T16:12:43.660Z,38.94
2023-05-24T16:14:06.428Z,39.07
2023-05-24T16:15:33.452Z,38.98
2023-05-24T16:16:58.575Z,38.96
2023-05-24T16:18:23.524Z,39.35
2023-05-24T16:19:49.795Z,39.36
2023-05-24T16:21:12.017Z,39.54
2023-05-24T16:22:34.805Z,39.36
2023-05-24T16:23:58.389Z,39.47
2023-05-24T16:25:22.142Z,39.52
2023-05-24T16:26:44.509Z,39.51
2023-05-24T16:28:06.393Z,39.84
2023-05-24T16:29:28.282Z,39.90
2023-05-24T16:30:52.555Z,39.91
2023-05-24T16:32:15.543Z,39.72
2023-05-24T16:33:37.786Z,40.07
2023-05-24T16:35:00.187Z,40.03
2023-05-24T16:36:22.075Z,40.16
2023-05-24T16:37:44.238Z,39.90
2023-05-24T16:39:06.601Z,40.16
2023-05-24T16:40:29.784Z,40.32
2023-05-24T16:41:52.819Z,40.16
2023-05-24T16:43:16.306Z,40.32
2023-05-24T16:44:38.869Z,40.33
2023-05-24T16:47:00.213Z,40.58
2023-05-24T16:58:07.756Z,40.67
2023-05-24T17:04:40.896Z,40.86
2023-05-24T17:06:18.296Z,40.92
2023-05-24T17:08:06.182Z,41.07
2023-05-24T17:09:35.601Z,41.12
2023-05-24T17:10:59.057Z,41.13
2023-05-24T17:12:29.073Z,41.19
2023-05-24T17:13:54.363Z,41.22
2023-05-24T17:15:51.476Z,41.34
2023-05-24T17:21:20.830Z,41.52
2023-05-24T17:22:43.063Z,41.36
2023-05-24T17:24:05.274Z,41.54
2023-05-24T17:25:33.074Z,41.48
2023-05-24T17:26:54.843Z,41.62
2023-05-24T17:28:17.088Z,41.62
2023-05-24T17:29:39.173Z,41.69
2023-05-24T17:31:01.894Z,41.81
2023-05-24T17:32:24.323Z,41.81
2023-05-24T17:33:46.281Z,41.89
2023-05-24T17:35:08.472Z,41.89
2023-05-24T17:36:33.810Z,41.97
2023-05-24T17:37:56.281Z,42.06
2023-05-24T17:39:55.176Z,42.10
2023-05-24T17:41:17.088Z,42.21
2023-05-24T17:42:39.423Z,42.15
2023-05-24T17:44:01.449Z,42.25
2023-05-24T17:45:40.757Z,42.34
2023-05-24T17:47:03.211Z,42.43
2023-05-24T17:51:31.578Z,42.49
2023-05-24T17:52:55.212Z,42.84
2023-05-24T17:54:17.684Z,42.66
2023-05-24T17:55:51.821Z,42.70
2023-05-24T18:04:44.131Z,43.04
2023-05-24T18:06:07.690Z,43.07
2023-05-24T18:07:32.121Z,43.15
2023-05-24T18:08:58.261Z,43.15
2023-05-24T18:10:20.832Z,43.31
2023-05-24T18:11:43.112Z,43.43
2023-05-24T18:13:08.714Z,43.38
2023-05-24T18:14:32.245Z,43.49
2023-05-24T18:15:54.356Z,43.59
2023-05-24T18:17:16.224Z,43.59
2023-05-24T18:18:52.195Z,43.63
2023-05-24T18:20:15.409Z,43.68
2023-05-24T18:21:37.682Z,43.79
2023-05-24T18:22:59.789Z,43.87
2023-05-24T18:24:23.334Z,43.92
2023-05-24T18:25:45.642Z,43.94
2023-05-24T18:27:10.339Z,43.96
2023-05-24T18:28:37.746Z,44.08
2023-05-24T18:30:00.135Z,44.19
2023-05-24T18:31:24.019Z,44.18
2023-05-24T18:33:15.602Z,44.26
2023-05-24T18:35:06.835Z,44.41
2023-05-24T18:36:45.156Z,44.41
2023-05-24T18:39:10.313Z,44.50
2023-05-24T18:40:34.127Z,44.71
2023-05-24T18:41:56.893Z,44.73
2023-05-24T18:43:19.205Z,44.87
2023-05-24T18:44:41.484Z,44.83
2023-05-24T18:46:02.237Z,44.83
2023-05-24T18:47:24.276Z,44.94
2023-05-24T18:48:46.612Z,44.95
2023-05-24T18:50:12.429Z,45.03
2023-05-24T18:51:34.495Z,45.14
2023-05-24T18:52:56.311Z,45.23
2023-05-24T18:54:20.422Z,45.33
2023-05-24T18:55:44.265Z,45.32
2023-05-24T18:57:07.354Z,45.30
2023-05-24T18:58:29.596Z,45.28
2023-05-24T18:59:53.465Z,45.48
2023-05-24T19:01:15.382Z,45.49
2023-05-24T19:02:39.225Z,45.55
2023-05-24T19:04:01.541Z,45.67
2023-05-24T19:05:24.150Z,45.68
2023-05-24T19:06:51.267Z,45.80
2023-05-24T19:08:15.573Z,45.76
2023-05-24T19:09:38.184Z,45.85
2023-05-24T19:11:14.671Z,45.99
2023-05-24T19:12:37.982Z,45.96
2023-05-24T19:14:00.533Z,46.05
2023-05-24T19:15:22.964Z,46.05
2023-05-24T19:16:50.845Z,46.26
2023-05-24T19:18:13.152Z,46.24
2023-05-24T19:19:34.868Z,46.22
2023-05-24T19:21:10.577Z,46.26
2023-05-24T19:25:13.819Z,46.39
2023-05-24T19:26:41.860Z,46.46
2023-05-24T19:28:07.372Z,46.54
2023-05-24T19:29:32.670Z,46.63
2023-05-24T19:31:01.308Z,46.57
2023-05-24T19:32:47.874Z,46.66
2023-05-24T19:34:10.027Z,46.67
2023-05-24T19:35:32.379Z,46.78
2023-05-24T19:36:54.592Z,46.87
2023-05-24T19:38:18.086Z,46.88
2023-05-24T19:39:57.128Z,46.91
2023-05-24T19:43:58.862Z,47.07
2023-05-24T19:45:21.172Z,47.05
2023-05-24T19:46:43.986Z,47.31
2023-05-24T19:48:21.788Z,47.38
2023-05-24T19:49:59.329Z,47.29
2023-05-24T19:51:24.453Z,47.58
2023-05-24T19:52:48.247Z,47.50
2023-05-24T19:54:11.588Z,47.40
2023-05-24T19:55:36.692Z,47.50
2023-05-24T19:57:04.422Z,47.51
2023-05-24T19:58:34.586Z,47.50
2023-05-24T20:00:01.614Z,47.71
2023-05-24T20:01:24.176Z,47.62
2023-05-24T20:03:13.994Z,47.77
2023-05-24T20:07:18.943Z,47.83
2023-05-24T20:09:19.016Z,47.87